Historyczne dane pomiarowe

Dodano dane terminowe – wersja testowa.

Dane z okresu 1951-2019

Wersja bazy: 1.34 [2019-03-16, lista zmian], aktualizacja planowana na 2019-04-15

Dane meteo z obszaru Polski uzyskane na podstawie danych udostępnionych przez Instytut Meteorologii i Gospodarki Wodnej – Państwowy Instytut Badawczy.

 

Wybierz Datę:    

       

TemperaturaWilgotnośćWiatrCiśnienieOpadyŚniegCzas trwania zjawisk
 Stacja t tx tn tng RH VA  wxwx mslp ppp RRR   cm mm wxwxwxwxwxwxwx
1961-08-14 14.7 19.7 9.5- 77.5- 2.0 0.7---- 0.0------------
1961-08-13 13.3 18.9 11.9- 93.5- 5.7 2.3---- 10.9------------
1961-08-12 19.7 24.9 16.6- 87.8- 7.3 0.7---- 15.0------------
1961-08-11 24.6 33.9 19.1- 79.8- 2.7 3.3---- 5.2------------
1961-08-10 23.9 29.7 18.7- 80.5- 2.7 3.0---- 0.0------------
1961-08-09 22.7 30.0 15.9- 79.8- 1.3 0.7---- 5.8------------
1961-08-08 21.5 26.2 18.1- 66.5- 6.3 2.7---- 10.7------------
1961-08-07 24.5 31.4 15.9- 60.0- 2.0 3.7---- 0.0------------
1961-08-06 23.1 30.3 12.6- 64.0- 0.0 2.0---- 0.0------------
1961-08-05 19.2 24.4 15.3- 65.5- 6.0 2.3---- 0.0------------
1961-08-04 17.4 22.3 12.9- 63.8- 4.0 2.0---- 0.0------------
1961-08-03 18.5 25.9 11.9- 80.0- 4.7 1.7---- 0.5------------
1961-08-02 19.3 26.8 9.6- 66.0- 0.0 1.0---- 0.0------------
1961-08-01 16.6 22.3 12.4- 71.0- 6.3 3.0---- 0.0------------
1961-07-31 14.2 19.6 11.6- 79.3- 5.3 3.7---- 0.0------------
1961-07-30 13.0 15.9 11.3- 96.5- 8.0 3.0---- 13.3------------
1961-07-29 14.7 19.3 12.8- 93.0- 8.0 2.7---- 33.5------------
1961-07-28 21.0 28.0 17.8- 75.8- 6.0 2.0---- 0.3------------
1961-07-27 22.3 27.8 10.1- 55.8- 5.0 3.7---- 0.0------------
1961-07-26 17.3 22.4 12.3- 62.5- 7.0 2.7---- 0.0------------
1961-07-25 14.1 18.9 10.3- 67.5- 7.3 3.0---- 0.0------------
1961-07-24 15.8 19.9 11.7- 67.3- 7.0 2.3---- 0.0------------
1961-07-23 16.3 21.3 12.0- 70.5- 4.7 2.7---- 0.0------------
1961-07-22 15.2 20.9 13.5- 79.8- 5.7 3.0---- 0.6------------
1961-07-21 16.5 21.4 12.5- 75.0- 5.3 5.0---- 0.1------------
1961-07-20 16.3 22.3 9.0- 84.3- 4.7 2.3---- 28.8------------
1961-07-19 15.9 22.9 7.9- 78.5- 4.0 0.0---- 0.8------------
1961-07-18 15.7 21.0 11.0- 64.3- 3.3 3.7---- 0.0------------
1961-07-17 17.9 24.5 13.3- 72.5- 5.3 2.0---- 1.7------------
1961-07-16 17.7 24.4 12.1- 70.8- 3.7 3.0---- 0.0------------
1961-07-15 19.7 25.6 7.6- 63.5- 4.3 2.3---- 1.4------------
1961-07-14 15.6 20.2 14.4- 69.3- 5.0 3.3---- 0.9------------
1961-07-13 21.8 30.5 12.6- 68.5- 3.3 6.7---- 0.0------------
1961-07-12 20.2 28.8 10.3- 66.5- 4.0 1.3---- 1.2------------
1961-07-11 16.4 22.1 9.6- 58.5- 3.7 2.3---- 0.0------------
1961-07-10 14.6 20.7 11.5- 72.3- 6.7 4.0---- 0.0------------
1961-07-09 16.3 25.4 8.1- 71.5- 4.7 3.0---- 0.7------------
1961-07-08 15.8 21.8 7.7- 63.5- 1.3 1.3---- 0.0------------
1961-07-07 14.4 19.3 9.7- 66.8- 5.0 2.3---- 0.0------------
1961-07-06 13.5 18.9 10.2- 68.8- 5.3 2.3---- 0.1------------
1961-07-05 15.3 20.3 13.2- 75.8- 7.7 3.7---- 1.1------------
1961-07-04 22.8 32.5 13.2- 69.8- 3.0 2.0---- 5.0------------
1961-07-03 24.3 31.9 12.1- 48.3- 0.0 2.0---- 0.0------------
1961-07-02 22.1 29.0 12.4- 56.3- 0.0 1.0---- 0.0------------
1961-07-01 20.8 27.1 12.1- 62.5- 0.7 1.0---- 0.0------------
1961-06-30 18.4 23.9 12.5- 64.3- 4.7 2.0---- 0.0------------
1961-06-29 16.3 20.6 8.6- 65.5- 5.0 3.0---- 0.0------------
1961-06-28 15.1 26.2 12.9- 81.5- 5.3 4.3---- 2.1------------
1961-06-27 26.1 32.5 15.9- 52.8- 2.7 3.3---- 12.7------------
1961-06-26 22.9 32.4 18.5- 69.5- 1.7 1.3---- 0.2------------
1961-06-25 23.2 30.1 10.9- 57.8- 0.7 4.3---- 0.0------------
1961-06-24 20.1 25.8 13.9- 55.8- 2.7 2.7---- 0.0------------
1961-06-23 18.8 24.2 13.6- 69.5- 6.3 3.0---- 2.6------------
1961-06-22 17.3 24.0 11.6- 71.0- 2.7 2.7---- 0.0------------
1961-06-21 18.5 24.7 7.1- 53.0- 0.0 1.7---- 0.0------------
1961-06-20 16.3 21.7 12.1- 56.8- 0.0 1.7---- 0.0------------
1961-06-19 21.5 29.3 17.8- 68.0- 4.0 3.3---- 0.0------------
1961-06-18 20.1 26.4 7.6- 58.8- 1.3 3.3---- 0.0------------
1961-06-17 16.3 22.9 8.6- 58.0- 2.0 2.3---- 0.0------------
1961-06-16 15.0 19.8 9.4- 60.0- 2.0 3.3---- 0.0------------
370.7 ms

 

Źródłem pochodzenia danych jest Instytut Meteorologii i Gospodarki Wodnej – Państwowy Instytut Badawczy. Dane Instytutu Meteorologii i Gospodarki Wodnej – Państwowego Instytutu Badawczego zostały przetworzone.

Dane źródłowe można odnaleźć na stronie https://dane.imgw.pl